createdAt,value
2022-08-16T00:01:55.657Z,12.75
2022-08-16T00:04:23.524Z,13.18
2022-08-16T00:06:55.568Z,13.85
2022-08-16T00:09:23.893Z,13.25
2022-08-16T00:11:52.693Z,13.55
2022-08-16T00:14:22.393Z,13.70
2022-08-16T00:17:05.330Z,12.85
2022-08-16T00:19:44.616Z,13.20
2022-08-16T00:22:15.398Z,12.90
2022-08-16T00:24:44.817Z,13.50
2022-08-16T00:27:14.384Z,12.85
2022-08-16T00:29:42.396Z,13.40
2022-08-16T00:32:10.959Z,12.60
2022-08-16T00:34:43.951Z,12.70
2022-08-16T00:37:24.626Z,13.77
2022-08-16T00:39:56.969Z,13.35
2022-08-16T00:42:30.723Z,12.98
2022-08-16T00:45:08.016Z,12.60
2022-08-16T00:47:36.962Z,12.90
2022-08-16T00:50:08.215Z,13.80
2022-08-16T00:52:45.862Z,12.55
2022-08-16T00:55:18.605Z,12.55
2022-08-16T00:57:58.795Z,12.48
2022-08-16T01:00:29.386Z,13.40
2022-08-16T01:02:58.016Z,13.60
2022-08-16T01:05:27.158Z,12.80
2022-08-16T01:07:58.529Z,13.45
2022-08-16T01:10:31.301Z,13.25
2022-08-16T01:13:01.125Z,12.98
2022-08-16T01:15:30.237Z,12.90
2022-08-16T01:17:58.497Z,12.77
2022-08-16T01:20:30.185Z,12.52
2022-08-16T01:23:04.368Z,12.57
2022-08-16T01:25:39.559Z,13.13
2022-08-16T01:28:09.268Z,12.40
2022-08-16T01:30:39.673Z,12.80
2022-08-16T01:33:15.387Z,12.60
2022-08-16T01:35:52.901Z,12.48
2022-08-16T01:38:25.875Z,12.60
2022-08-16T01:40:58.546Z,13.00
2022-08-16T01:43:31.407Z,12.23
2022-08-16T01:46:38.445Z,13.70
2022-08-16T01:48:48.979Z,12.48
2022-08-16T01:51:17.959Z,13.43
2022-08-16T01:53:55.309Z,12.52
2022-08-16T01:56:30.333Z,11.82
2022-08-16T01:59:00.423Z,13.63
2022-08-16T02:01:29.491Z,13.45
2022-08-16T02:04:10.978Z,13.50
2022-08-16T02:06:46.040Z,13.32
2022-08-16T02:09:17.768Z,13.93
2022-08-16T02:11:53.103Z,14.68
2022-08-16T02:14:26.176Z,14.35
2022-08-16T02:16:56.250Z,14.70
2022-08-16T02:19:25.332Z,13.35
2022-08-16T02:22:33.647Z,14.65
2022-08-16T02:25:01.475Z,14.43
2022-08-16T02:27:31.084Z,15.43
2022-08-16T02:30:05.324Z,13.82
2022-08-16T02:32:50.169Z,14.18
2022-08-16T02:35:23.268Z,14.13
2022-08-16T02:37:52.940Z,15.07
2022-08-16T02:40:24.787Z,21.63
2022-08-16T02:42:55.704Z,22.77
2022-08-16T02:45:28.004Z,20.23
2022-08-16T02:48:00.528Z,19.77
2022-08-16T02:50:54.493Z,20.42
2022-08-16T02:53:23.542Z,19.60
2022-08-16T02:55:51.715Z,20.80
2022-08-16T02:58:25.204Z,19.85
2022-08-16T03:00:56.081Z,17.73
2022-08-16T03:03:25.363Z,17.92
2022-08-16T03:05:53.529Z,18.48
2022-08-16T03:08:49.863Z,18.55
2022-08-16T03:11:16.775Z,19.52
2022-08-16T03:13:48.329Z,20.23
2022-08-16T03:16:37.661Z,19.33
2022-08-16T03:19:07.360Z,19.45
2022-08-16T03:21:38.127Z,21.08
2022-08-16T03:24:28.710Z,20.25
2022-08-16T03:26:58.196Z,20.33
2022-08-16T03:29:30.127Z,21.20
2022-08-16T03:31:59.581Z,20.23
2022-08-16T03:34:29.484Z,18.65
2022-08-16T03:36:57.944Z,19.98
2022-08-16T03:39:26.004Z,19.85
2022-08-16T03:42:00.018Z,19.45
2022-08-16T03:44:44.809Z,19.38
2022-08-16T03:47:19.800Z,19.38
2022-08-16T03:49:51.954Z,17.67
2022-08-16T03:52:23.710Z,17.40
2022-08-16T03:54:58.035Z,18.65
2022-08-16T03:57:31.773Z,19.58
2022-08-16T04:00:20.820Z,17.83
2022-08-16T04:03:08.733Z,18.38
2022-08-16T04:05:44.030Z,17.02
2022-08-16T04:08:23.442Z,17.25
2022-08-16T04:10:55.070Z,16.75
2022-08-16T04:14:00.745Z,17.88
2022-08-16T04:16:26.682Z,16.45
2022-08-16T04:19:01.949Z,16.80
2022-08-16T04:21:32.017Z,17.05
2022-08-16T04:24:01.450Z,17.50
2022-08-16T04:26:32.261Z,16.42
2022-08-16T04:29:15.151Z,16.25
2022-08-16T04:31:56.836Z,16.33
2022-08-16T04:34:30.642Z,17.00
2022-08-16T04:37:01.102Z,15.65
2022-08-16T04:39:44.950Z,16.70
2022-08-16T04:42:16.204Z,17.35
2022-08-16T04:44:55.042Z,16.63
2022-08-16T04:47:33.216Z,16.48
2022-08-16T04:50:07.811Z,18.65
2022-08-16T04:52:36.198Z,17.50
2022-08-16T04:55:07.441Z,17.00
2022-08-16T04:57:36.898Z,17.00
2022-08-16T05:00:32.512Z,18.17
2022-08-16T05:02:58.765Z,20.98
2022-08-16T05:05:32.815Z,18.23
2022-08-16T05:08:01.103Z,17.10
2022-08-16T05:10:59.859Z,18.00
2022-08-16T05:13:40.880Z,18.17
2022-08-16T05:16:19.774Z,18.10
2022-08-16T05:18:50.322Z,18.88
2022-08-16T05:21:20.580Z,18.27
2022-08-16T05:23:58.391Z,17.92
2022-08-16T05:26:29.270Z,17.55
2022-08-16T05:28:57.690Z,17.15
2022-08-16T05:31:29.997Z,19.17
2022-08-16T05:34:03.010Z,18.48
2022-08-16T05:36:34.115Z,18.08
2022-08-16T05:39:05.741Z,19.23
2022-08-16T05:41:33.555Z,18.90
2022-08-16T05:44:23.661Z,19.15
2022-08-16T05:46:54.549Z,19.10
2022-08-16T05:49:24.194Z,17.95
2022-08-16T05:51:57.247Z,18.50
2022-08-16T05:54:26.239Z,20.90
2022-08-16T05:56:59.942Z,20.17
2022-08-16T05:59:28.818Z,20.70
2022-08-16T06:01:58.078Z,20.42
2022-08-16T06:04:35.972Z,20.75
2022-08-16T06:07:08.773Z,20.02
2022-08-16T06:09:43.640Z,20.00
2022-08-16T06:12:27.457Z,19.15
2022-08-16T06:14:59.710Z,20.73
2022-08-16T06:17:42.439Z,20.42
2022-08-16T06:20:23.761Z,18.50
2022-08-16T06:23:03.616Z,16.45
2022-08-16T06:25:42.942Z,18.23
2022-08-16T06:28:16.850Z,18.35
2022-08-16T06:30:45.161Z,19.08
2022-08-16T06:33:19.729Z,18.77
2022-08-16T06:35:55.166Z,19.77
2022-08-16T06:38:32.153Z,18.50
2022-08-16T06:41:03.996Z,18.52
2022-08-16T06:43:31.797Z,19.05
2022-08-16T06:46:05.980Z,17.75
2022-08-16T06:48:42.713Z,20.83
2022-08-16T06:51:12.541Z,18.48
2022-08-16T06:53:42.770Z,20.58
2022-08-16T06:56:14.011Z,19.25
2022-08-16T06:58:58.301Z,20.73
2022-08-16T07:01:44.879Z,19.98
2022-08-16T07:04:31.860Z,24.30
2022-08-16T07:07:05.523Z,23.52
2022-08-16T07:09:33.841Z,18.88
2022-08-16T07:12:03.173Z,17.02
2022-08-16T07:14:35.103Z,15.63
2022-08-16T07:17:08.299Z,15.65
2022-08-16T07:20:03.693Z,14.68
2022-08-16T07:22:39.693Z,15.50
2022-08-16T07:25:15.909Z,14.40
2022-08-16T07:27:44.444Z,13.50
2022-08-16T07:30:39.194Z,12.82
2022-08-16T07:33:07.105Z,12.48
2022-08-16T07:35:36.121Z,11.30
2022-08-16T07:38:06.448Z,13.07
2022-08-16T07:40:59.995Z,11.10
2022-08-16T07:43:30.849Z,11.32
2022-08-16T07:46:03.686Z,11.93
2022-08-16T07:48:35.057Z,10.40
2022-08-16T07:51:06.475Z,12.38
2022-08-16T07:53:43.338Z,11.00
2022-08-16T07:56:13.066Z,10.48
2022-08-16T07:58:43.290Z,9.20
2022-08-16T08:01:16.482Z,10.25
2022-08-16T08:03:56.078Z,10.32
2022-08-16T08:06:32.353Z,9.48
2022-08-16T08:09:10.535Z,10.38
2022-08-16T08:11:39.042Z,10.25
2022-08-16T08:14:09.460Z,8.95
2022-08-16T08:16:57.132Z,8.80
2022-08-16T08:19:31.017Z,8.65
2022-08-16T08:22:02.483Z,9.13
2022-08-16T08:24:44.104Z,9.43
2022-08-16T08:27:13.067Z,8.73
2022-08-16T08:30:50.636Z,8.80
2022-08-16T08:32:58.227Z,8.38
2022-08-16T08:35:29.720Z,8.43
2022-08-16T08:37:59.568Z,8.00
2022-08-16T08:40:31.846Z,8.88
2022-08-16T08:43:11.814Z,9.30
2022-08-16T08:45:48.337Z,9.52
2022-08-16T08:48:33.423Z,8.60
2022-08-16T08:51:05.132Z,9.35
2022-08-16T08:53:36.115Z,9.15
2022-08-16T08:56:22.483Z,9.95
2022-08-16T08:58:54.338Z,9.73
2022-08-16T09:01:57.064Z,9.32
2022-08-16T09:04:27.629Z,9.90
2022-08-16T09:06:58.616Z,9.73
2022-08-16T09:09:33.426Z,10.38
2022-08-16T09:12:07.296Z,8.68
2022-08-16T09:14:51.074Z,8.55
2022-08-16T09:17:48.793Z,8.65
2022-08-16T09:20:14.384Z,9.18
2022-08-16T09:22:51.662Z,8.95
2022-08-16T09:25:26.129Z,7.63
2022-08-16T09:27:58.107Z,9.30
2022-08-16T09:30:42.943Z,9.82
2022-08-16T09:33:11.973Z,9.75
2022-08-16T09:35:42.530Z,9.00
2022-08-16T09:38:31.291Z,8.90
2022-08-16T09:41:00.877Z,9.02
2022-08-16T09:46:33.389Z,8.43
2022-08-16T09:49:06.079Z,7.88
2022-08-16T09:51:37.502Z,8.43
2022-08-16T09:54:05.543Z,7.85
2022-08-16T09:56:34.668Z,9.10
2022-08-16T09:59:08.285Z,8.32
2022-08-16T10:01:36.706Z,8.55
2022-08-16T10:04:29.913Z,7.72
2022-08-16T10:06:55.154Z,7.97
2022-08-16T10:09:25.714Z,8.20
2022-08-16T10:12:31.414Z,8.57
2022-08-16T10:15:02.599Z,8.07
2022-08-16T10:17:30.217Z,8.05
2022-08-16T10:19:58.532Z,8.55
2022-08-16T10:22:26.134Z,9.93
2022-08-16T10:24:59.339Z,8.80
2022-08-16T10:27:45.738Z,8.23
2022-08-16T10:30:25.280Z,7.78
2022-08-16T10:32:53.981Z,8.05
2022-08-16T10:35:21.810Z,7.75
2022-08-16T10:37:52.444Z,7.45
2022-08-16T10:40:29.588Z,8.38
2022-08-16T10:42:59.843Z,7.72
2022-08-16T10:45:29.376Z,7.53
2022-08-16T10:48:06.345Z,7.85
2022-08-16T10:50:55.213Z,7.70
2022-08-16T10:53:22.908Z,7.53
2022-08-16T10:55:57.586Z,7.72
2022-08-16T10:58:34.362Z,8.15
2022-08-16T11:03:54.581Z,7.38
2022-08-16T11:06:26.830Z,6.97
2022-08-16T11:14:31.938Z,8.63
2022-08-16T11:17:09.121Z,9.00
2022-08-16T11:20:00.488Z,7.55
2022-08-16T11:22:47.243Z,8.23
2022-08-16T11:25:59.453Z,8.43
2022-08-16T11:28:03.281Z,8.43
2022-08-16T11:30:38.494Z,7.88
2022-08-16T11:33:08.844Z,8.07
2022-08-16T11:35:43.807Z,7.32
2022-08-16T11:38:47.639Z,7.45
2022-08-16T11:41:02.111Z,7.85
2022-08-16T11:43:31.196Z,7.80
2022-08-16T11:46:43.572Z,7.15
2022-08-16T11:48:51.690Z,7.20
2022-08-16T11:51:19.524Z,8.48
2022-08-16T11:53:47.131Z,7.85
2022-08-16T11:56:15.033Z,8.65
2022-08-16T11:58:42.751Z,8.18
2022-08-16T12:01:19.840Z,8.38
2022-08-16T12:03:58.771Z,7.65
2022-08-16T12:06:30.926Z,7.82
2022-08-16T12:09:01.928Z,8.40
2022-08-16T12:11:31.572Z,9.48
2022-08-16T12:14:00.038Z,8.75
2022-08-16T12:16:31.346Z,9.30
2022-08-16T12:19:04.310Z,9.27
2022-08-16T12:21:35.808Z,8.43
2022-08-16T12:24:19.980Z,8.77
2022-08-16T12:26:48.326Z,8.95
2022-08-16T12:29:16.620Z,8.65
2022-08-16T12:31:59.032Z,9.07
2022-08-16T12:34:33.382Z,9.10
2022-08-16T12:37:04.810Z,8.98
2022-08-16T12:39:34.265Z,9.23
2022-08-16T12:42:02.871Z,8.38
2022-08-16T12:44:31.565Z,8.95
2022-08-16T12:47:16.808Z,8.25
2022-08-16T12:49:45.703Z,7.85
2022-08-16T12:52:32.922Z,61.28
2022-08-16T12:55:01.123Z,28.15
2022-08-16T12:57:36.438Z,22.65
2022-08-16T13:00:06.519Z,25.00
2022-08-16T13:02:36.418Z,26.38
2022-08-16T13:05:06.987Z,18.92
2022-08-16T13:07:42.443Z,23.00
2022-08-16T13:10:21.471Z,19.60
2022-08-16T13:13:01.967Z,18.23
2022-08-16T13:15:31.406Z,25.02
2022-08-16T13:18:11.126Z,18.77
2022-08-16T13:20:53.144Z,23.40
2022-08-16T13:23:20.856Z,17.27
2022-08-16T13:25:49.963Z,15.48
2022-08-16T13:28:18.757Z,11.00
2022-08-16T13:30:48.073Z,18.67
2022-08-16T13:33:26.143Z,20.70
2022-08-16T13:36:00.117Z,18.63
2022-08-16T13:38:37.272Z,11.98
2022-08-16T13:41:05.801Z,12.98
2022-08-16T13:43:38.170Z,19.80
2022-08-16T13:46:06.552Z,15.60
2022-08-16T13:48:42.773Z,17.73
2022-08-16T13:51:16.972Z,16.48
2022-08-16T13:53:45.785Z,18.15
2022-08-16T13:56:25.388Z,15.00
2022-08-16T13:58:54.743Z,23.77
2022-08-16T14:01:23.903Z,17.27
2022-08-16T14:03:54.708Z,15.05
2022-08-16T14:06:24.925Z,13.32
2022-08-16T14:09:06.742Z,25.15
2022-08-16T14:11:35.051Z,16.95
2022-08-16T14:14:05.535Z,20.80
2022-08-16T14:16:34.234Z,19.30
2022-08-16T14:19:02.789Z,14.35
2022-08-16T14:21:35.334Z,16.98
2022-08-16T14:24:12.756Z,18.80
2022-08-16T14:26:52.864Z,15.60
2022-08-16T14:29:20.759Z,14.55
2022-08-16T14:31:53.689Z,41.63
2022-08-16T14:34:25.730Z,16.63
2022-08-16T14:36:58.091Z,15.27
2022-08-16T14:39:27.574Z,18.40
2022-08-16T14:41:56.312Z,11.77
2022-08-16T14:44:24.238Z,15.52
2022-08-16T14:46:53.914Z,20.83
2022-08-16T14:49:21.506Z,15.32
2022-08-16T14:51:49.625Z,11.02
2022-08-16T14:54:18.672Z,19.73
2022-08-16T14:56:55.076Z,13.85
2022-08-16T14:59:23.254Z,16.90
2022-08-16T15:01:58.780Z,11.93
2022-08-16T15:04:32.264Z,16.88
2022-08-16T15:07:10.979Z,18.85
2022-08-16T15:09:44.564Z,14.65
2022-08-16T15:12:30.872Z,13.57
2022-08-16T15:15:01.413Z,18.90
2022-08-16T15:17:37.037Z,16.42
2022-08-16T15:20:08.463Z,17.58
2022-08-16T15:22:38.927Z,16.02
2022-08-16T15:25:09.876Z,14.23
2022-08-16T15:27:41.961Z,14.90
2022-08-16T15:30:44.825Z,11.40
2022-08-16T15:33:02.543Z,19.48
2022-08-16T15:35:30.258Z,13.45
2022-08-16T15:37:58.353Z,13.32
2022-08-16T15:40:35.402Z,16.33
2022-08-16T15:43:06.535Z,15.30
2022-08-16T15:45:55.475Z,21.13
2022-08-16T15:48:29.241Z,25.50
2022-08-16T15:50:58.307Z,24.23
2022-08-16T15:53:27.285Z,16.73
2022-08-16T15:55:56.913Z,12.00
2022-08-16T15:58:35.348Z,24.48
2022-08-16T16:01:06.567Z,25.77
2022-08-16T16:03:35.208Z,17.20
2022-08-16T16:06:03.631Z,14.88
2022-08-16T16:08:32.541Z,11.73
2022-08-16T16:11:04.212Z,19.10
2022-08-16T16:13:34.108Z,16.67
2022-08-16T16:16:04.157Z,11.13
2022-08-16T16:18:41.013Z,19.92
2022-08-16T16:21:20.185Z,16.92
2022-08-16T16:23:54.952Z,14.25
2022-08-16T16:26:27.169Z,17.13
2022-08-16T16:29:08.659Z,17.02
2022-08-16T16:31:43.870Z,17.45
2022-08-16T16:34:18.127Z,14.15
2022-08-16T16:36:48.772Z,15.13
2022-08-16T16:39:17.579Z,12.43
2022-08-16T16:41:46.890Z,17.52
2022-08-16T16:44:22.638Z,13.80
2022-08-16T16:46:59.754Z,21.98
2022-08-16T16:49:27.961Z,20.08
2022-08-16T16:52:00.098Z,17.33
2022-08-16T16:54:35.500Z,15.30
2022-08-16T16:57:04.860Z,13.77
2022-08-16T16:59:32.053Z,21.42
2022-08-16T17:02:40.913Z,14.48
2022-08-16T17:04:47.924Z,19.98
2022-08-16T17:07:15.759Z,15.63
2022-08-16T17:09:45.567Z,12.13
2022-08-16T17:12:46.266Z,13.60
2022-08-16T17:15:02.361Z,16.88
2022-08-16T17:17:36.177Z,18.02
2022-08-16T17:20:18.413Z,16.05
2022-08-16T17:22:46.025Z,17.02
2022-08-16T17:25:22.548Z,18.38
2022-08-16T17:27:52.051Z,14.63
2022-08-16T17:30:21.069Z,18.55
2022-08-16T17:33:00.539Z,12.52
2022-08-16T17:35:34.172Z,13.85
2022-08-16T17:38:06.047Z,14.90
2022-08-16T17:40:47.199Z,17.48
2022-08-16T17:43:20.669Z,15.38
2022-08-16T17:45:48.813Z,19.15
2022-08-16T17:48:16.376Z,14.77
2022-08-16T17:50:45.277Z,16.88
2022-08-16T17:53:14.466Z,15.43
2022-08-16T17:55:43.061Z,15.63
2022-08-16T17:58:22.734Z,13.73
2022-08-16T18:00:53.959Z,20.13
2022-08-16T18:04:03.118Z,15.20
2022-08-16T18:06:13.082Z,15.85
2022-08-16T18:08:41.340Z,11.18
2022-08-16T18:11:12.111Z,16.55
2022-08-16T18:13:42.801Z,18.45
2022-08-16T18:16:12.300Z,12.60
2022-08-16T18:18:39.936Z,12.63
2022-08-16T18:21:25.054Z,22.05
2022-08-16T18:23:52.812Z,13.70
2022-08-16T18:26:20.872Z,15.50
2022-08-16T18:28:48.822Z,13.88
2022-08-16T18:31:17.879Z,21.17
2022-08-16T18:33:45.586Z,13.38
2022-08-16T18:36:20.827Z,16.15
2022-08-16T18:38:49.257Z,26.75
2022-08-16T18:41:17.205Z,15.55
2022-08-16T18:44:23.787Z,15.82
2022-08-16T18:46:33.773Z,20.10
2022-08-16T18:49:01.417Z,21.63
2022-08-16T18:51:29.201Z,15.93
2022-08-16T18:53:56.839Z,16.02
2022-08-16T18:56:24.726Z,22.20
2022-08-16T18:59:12.667Z,16.27
2022-08-16T19:01:41.778Z,24.83
2022-08-16T19:04:55.673Z,18.48
2022-08-16T19:06:57.175Z,17.38
2022-08-16T19:09:24.780Z,11.88
2022-08-16T19:11:52.673Z,15.98
2022-08-16T19:14:22.002Z,21.35
2022-08-16T19:16:51.139Z,19.25
2022-08-16T19:19:19.048Z,23.63
2022-08-16T19:21:46.830Z,14.05
2022-08-16T19:24:17.697Z,15.90
2022-08-16T19:26:45.920Z,17.27
2022-08-16T19:29:13.643Z,17.00
2022-08-16T19:31:41.289Z,21.65
2022-08-16T19:34:11.341Z,20.98
2022-08-16T19:36:40.690Z,19.35
2022-08-16T19:39:09.479Z,20.38
2022-08-16T19:41:37.827Z,16.75
2022-08-16T19:44:05.932Z,20.42
2022-08-16T19:46:33.765Z,22.17
2022-08-16T19:49:01.898Z,20.10
2022-08-16T19:51:30.988Z,21.90
2022-08-16T19:53:58.614Z,22.40
2022-08-16T19:56:26.710Z,22.30
2022-08-16T20:01:42.992Z,21.00
2022-08-16T20:04:12.067Z,18.98
2022-08-16T20:06:41.656Z,21.20
2022-08-16T20:09:10.879Z,12.93
2022-08-16T20:11:42.235Z,24.08
2022-08-16T20:14:10.032Z,19.65
2022-08-16T20:16:37.628Z,16.33
2022-08-16T20:19:05.349Z,19.95
2022-08-16T20:21:32.913Z,21.38
2022-08-16T20:24:30.065Z,23.83
2022-08-16T20:26:49.807Z,24.13
2022-08-16T20:29:17.519Z,22.73
2022-08-16T20:31:45.229Z,23.25
2022-08-16T20:34:15.553Z,15.85
2022-08-16T20:36:43.312Z,16.67
2022-08-16T20:39:13.325Z,21.10
2022-08-16T20:41:41.719Z,20.85
2022-08-16T20:44:10.031Z,22.30
2022-08-16T20:46:39.516Z,21.08
2022-08-16T20:49:09.072Z,24.38
2022-08-16T20:51:46.959Z,19.20
2022-08-16T20:54:19.984Z,26.38
2022-08-16T20:56:47.608Z,23.92
2022-08-16T20:59:15.303Z,22.70
2022-08-16T21:01:45.697Z,22.33
2022-08-16T21:04:15.462Z,23.35
2022-08-16T21:06:53.398Z,26.42
2022-08-16T21:09:24.337Z,23.67
2022-08-16T21:11:52.905Z,24.02
2022-08-16T21:14:20.607Z,24.23
2022-08-16T21:16:48.200Z,23.10
2022-08-16T21:19:15.753Z,28.45
2022-08-16T21:21:43.315Z,25.60
2022-08-16T21:24:10.877Z,22.95
2022-08-16T21:26:39.861Z,20.17
2022-08-16T21:29:11.340Z,34.60
2022-08-16T21:31:43.991Z,24.50
2022-08-16T21:34:11.576Z,20.08
2022-08-16T21:36:39.211Z,26.23
2022-08-16T21:39:07.357Z,24.83
2022-08-16T21:41:35.566Z,26.52
2022-08-16T21:44:04.865Z,22.38
2022-08-16T21:46:33.589Z,25.15
2022-08-16T21:49:01.174Z,23.05
2022-08-16T21:51:28.776Z,28.25
2022-08-16T21:53:56.756Z,24.13
2022-08-16T21:56:24.473Z,24.00
2022-08-16T21:58:53.109Z,24.52
2022-08-16T22:01:23.750Z,22.70
2022-08-16T22:04:01.496Z,22.38
2022-08-16T22:06:40.504Z,19.98
2022-08-16T22:09:09.745Z,26.00
2022-08-16T22:11:37.781Z,19.52
2022-08-16T22:14:05.922Z,24.58
2022-08-16T22:16:36.289Z,27.95
2022-08-16T22:19:04.405Z,21.92
2022-08-16T22:21:32.665Z,25.67
2022-08-16T22:24:00.477Z,29.33
2022-08-16T22:26:29.991Z,25.02
2022-08-16T22:28:58.616Z,23.20
2022-08-16T22:31:26.753Z,26.42
2022-08-16T22:33:56.630Z,21.17
2022-08-16T22:36:28.620Z,28.05
2022-08-16T22:38:57.932Z,24.20
2022-08-16T22:41:26.185Z,21.38
2022-08-16T22:43:53.762Z,26.05
2022-08-16T22:46:21.300Z,30.25
2022-08-16T22:48:49.948Z,29.92
2022-08-16T22:51:19.021Z,27.40
2022-08-16T22:53:46.760Z,35.28
2022-08-16T22:56:15.392Z,31.88
2022-08-16T22:58:43.034Z,33.15
2022-08-16T23:01:12.032Z,28.63
2022-08-16T23:03:39.856Z,33.40
2022-08-16T23:06:08.185Z,30.77
2022-08-16T23:08:40.823Z,29.45
2022-08-16T23:11:10.280Z,28.00
2022-08-16T23:13:37.907Z,25.85
2022-08-16T23:16:20.529Z,29.52
2022-08-16T23:18:48.454Z,26.98
2022-08-16T23:21:16.782Z,28.30
2022-08-16T23:23:47.013Z,30.40
2022-08-16T23:26:44.873Z,28.85
2022-08-16T23:29:05.028Z,29.33
2022-08-16T23:31:33.399Z,29.42
2022-08-16T23:34:01.051Z,28.35
2022-08-16T23:36:28.597Z,25.60
2022-08-16T23:38:58.457Z,32.50
2022-08-16T23:41:26.027Z,28.88
2022-08-16T23:43:53.554Z,36.05
2022-08-16T23:46:21.160Z,28.08
2022-08-16T23:49:59.494Z,40.17
2022-08-16T23:51:36.304Z,29.02
2022-08-16T23:54:08.253Z,30.33
2022-08-16T23:56:40.576Z,31.58
2022-08-16T23:59:08.691Z,27.92
